Sunflower IVory — JI3634 — position and weather

sailwx.info

Track history (hours):
 
Tides and Currents Weather Stations Pressure Air Temp Water Temp Dewpoint Dewpoint Depression Visibility Wind Speed Wind Dir Waves Ship Positions

Sunflower IVory

Last reported at 2017-Sep-20 11:51 UTC. Time now 2017-Sep-21 03:14 UTC.
Position N 34°33' E 134°46'.

Length 153 m; draft 5.7 m.

Type: Ship. MMSI: 431300686.

Date/timePositionNaut miles runAvg speedWind from/ knotsBaromVisibWave heightAir tempDewpointWater temp
2017-Sep-20 11:51N 34°33' E 134°46'822.5
2017-Sep-20 11:30N 34°36' E 134°55'1020.3
2017-Sep-20 11:00N 34°36' E 135°07'1019.8
2017-Sep-20 10:30N 34°37' E 135°19'4 9.1
2017-Sep-20 10:00N 34°38' E 135°25'0 0.0
2017-Sep-20 09:30N 34°38' E 135°25'0 0.0
2017-Sep-20 09:00N 34°38' E 135°25'0 0.0
2017-Sep-20 08:30N 34°38' E 135°25'0 0.0
2017-Sep-20 08:00N 34°38' E 135°25'0 0.0
2017-Sep-20 07:27N 34°38' E 135°25'0 0.0
2017-Sep-20 06:57N 34°38' E 135°25'0 0.0
2017-Sep-20 06:27N 34°38' E 135°25'0 0.0
2017-Sep-20 05:57N 34°38' E 135°25'0 0.0
2017-Sep-20 05:15N 34°38' E 135°25'0 0.0
2017-Sep-20 04:51N 34°38' E 135°25'0 0.0
2017-Sep-20 04:27N 34°38' E 135°25'0 0.0
2017-Sep-20 03:51N 34°38' E 135°25'0 0.0
2017-Sep-20 03:21N 34°38' E 135°25'0 0.0
2017-Sep-20 02:57N 34°38' E 135°25'0 0.0
2017-Sep-20 02:27N 34°38' E 135°25'0 0.0
2017-Sep-20 01:57N 34°38' E 135°25'0 0.0
2017-Sep-20 01:27N 34°38' E 135°25'0 0.0
2017-Sep-20 00:57N 34°38' E 135°25'0 0.0
2017-Sep-20 00:27N 34°38' E 135°25'0 0.0
2017-Sep-19 23:57N 34°38' E 135°25'0 0.0
2017-Sep-19 23:27N 34°38' E 135°25'0 0.0
2017-Sep-19 22:51N 34°38' E 135°25'0 0.0
2017-Sep-19 22:27N 34°38' E 135°25'0 0.0
2017-Sep-19 21:57N 34°38' E 135°25'0 0.0
2017-Sep-19 21:30N 34°38' E 135°25'4 7.2
2017-Sep-19 21:01N 34°37' E 135°21'918.2
2017-Sep-19 20:30N 34°35' E 135°10'917.7
2017-Sep-19 20:00N 34°37' E 134°59'10 0.3
2017-Sep-18 11:42N 34°33' E 134°48'521.8
2017-Sep-18 11:29N 34°35' E 134°53'1020.2
2017-Sep-18 11:00N 34°36' E 135°05'1020.4
2017-Sep-18 10:30N 34°36' E 135°17'611.0
2017-Sep-18 09:56N 34°38' E 135°25'0 0.0
2017-Sep-18 09:20N 34°38' E 135°25'0 0.0
2017-Sep-18 08:56N 34°38' E 135°25'0 0.0
2017-Sep-18 08:20N 34°38' E 135°25'0 0.0
2017-Sep-18 07:56N 34°38' E 135°25'0 0.0
2017-Sep-18 07:26N 34°38' E 135°25'0 0.0
2017-Sep-18 06:38N 34°38' E 135°25'0 0.0
2017-Sep-18 06:26N 34°38' E 135°25'0 0.0
2017-Sep-18 03:14N 34°38' E 135°25'0 0.0
2017-Sep-18 02:56N 34°38' E 135°25'1 3.5
2017-Sep-18 02:31N 34°38' E 135°23'918.5
2017-Sep-18 02:00N 34°31' E 135°15'2 3.2
2017-Sep-18 01:30N 34°30' E 135°14'0 0.1
2017-Sep-18 01:00N 34°30' E 135°14'0 0.0
2017-Sep-18 00:30N 34°30' E 135°14'0 0.0
2017-Sep-18 00:00N 34°30' E 135°14'0 0.0
2017-Sep-17 23:30N 34°30' E 135°14'0 0.0
2017-Sep-17 23:00N 34°30' E 135°14'0 0.0
2017-Sep-17 22:30N 34°30' E 135°14'0 0.0
2017-Sep-17 22:00N 34°30' E 135°14'0 0.1
2017-Sep-17 21:30N 34°30' E 135°14'0 0.0
2017-Sep-17 21:00N 34°30' E 135°14'0 0.1
2017-Sep-17 20:30N 34°30' E 135°14'0 0.0
2017-Sep-17 20:00N 34°30' E 135°14'0 0.0
2017-Sep-17 19:30N 34°30' E 135°14'0 0.0
2017-Sep-17 19:00N 34°30' E 135°14'0 0.0
2017-Sep-17 18:30N 34°30' E 135°14'0 0.0
2017-Sep-17 18:00N 34°30' E 135°14'0 0.0
2017-Sep-17 17:30N 34°30' E 135°14'0 0.1
2017-Sep-17 17:00N 34°30' E 135°14'0 0.0
2017-Sep-17 16:30N 34°30' E 135°14'0 0.0
2017-Sep-17 16:00N 34°30' E 135°14'0 0.0
2017-Sep-17 15:30N 34°30' E 135°14'0 0.1
2017-Sep-17 15:00N 34°30' E 135°14'0 0.2
2017-Sep-17 14:30N 34°30' E 135°14'0 0.2
2017-Sep-17 13:59N 34°30' E 135°14'0 0.2
2017-Sep-17 13:28N 34°30' E 135°13'0 0.0
2017-Sep-17 12:56N 34°30' E 135°13'0 0.0
2017-Sep-17 12:27N 34°30' E 135°13'0 0.1
2017-Sep-17 12:00N 34°30' E 135°13'0 0.1
2017-Sep-17 11:30N 34°30' E 135°13'0 0.0
2017-Sep-17 11:00N 34°30' E 135°13'0 0.0
2017-Sep-17 10:30N 34°30' E 135°13'0 0.1
2017-Sep-17 10:00N 34°30' E 135°13'0 0.1
2017-Sep-17 09:30N 34°30' E 135°13'0 0.0
2017-Sep-17 09:00N 34°30' E 135°13'0 0.1
2017-Sep-17 08:30N 34°30' E 135°13'0 0.0
2017-Sep-17 08:00N 34°30' E 135°13'0 0.1
2017-Sep-17 07:30N 34°30' E 135°13'0 0.1
2017-Sep-17 07:00N 34°30' E 135°13'0 0.0
2017-Sep-17 06:30N 34°30' E 135°13'0 0.1
2017-Sep-17 06:00N 34°30' E 135°13'0 0.1
2017-Sep-17 05:30N 34°30' E 135°13'0 0.0
2017-Sep-17 05:00N 34°30' E 135°13'0 0.0
2017-Sep-17 04:30N 34°30' E 135°13'0 0.0
2017-Sep-17 04:00N 34°30' E 135°13'0 0.1
2017-Sep-17 03:30N 34°30' E 135°13'0 0.1
2017-Sep-17 03:00N 34°30' E 135°13'0 0.1
2017-Sep-17 02:30N 34°30' E 135°13'0 0.0
2017-Sep-17 02:00N 34°30' E 135°13'0 0.0
2017-Sep-17 01:30N 34°30' E 135°13'0 0.0
2017-Sep-17 01:00N 34°30' E 135°13'0 0.1
2017-Sep-17 00:30N 34°30' E 135°13'0 0.1
2017-Sep-17 00:01N 34°30' E 135°13'0 0.1
2017-Sep-16 23:30N 34°30' E 135°13'0 0.0
2017-Sep-16 22:57N 34°30' E 135°13'0 0.0
2017-Sep-16 22:30N 34°30' E 135°13'0 0.1
2017-Sep-16 22:00N 34°30' E 135°13'0 0.1
2017-Sep-16 21:30N 34°30' E 135°13'0 0.0
2017-Sep-16 21:00N 34°30' E 135°13'0 0.1
2017-Sep-16 20:30N 34°30' E 135°13'0 0.0
2017-Sep-16 19:57N 34°30' E 135°13'0 0.2
2017-Sep-16 19:30N 34°30' E 135°13'0 0.1
2017-Sep-16 19:00N 34°30' E 135°13'0 0.1
2017-Sep-16 18:30N 34°30' E 135°13'0 0.0
2017-Sep-16 18:00N 34°30' E 135°13'0 0.1
2017-Sep-16 17:30N 34°30' E 135°13'0 0.1
2017-Sep-16 17:00N 34°30' E 135°13'0 0.1
2017-Sep-16 16:30N 34°30' E 135°13'0 0.0
2017-Sep-16 16:00N 34°30' E 135°13'0 0.1
2017-Sep-16 15:30N 34°30' E 135°13'0 0.0
2017-Sep-16 15:00N 34°30' E 135°13'0 0.0
2017-Sep-16 14:27N 34°30' E 135°13'0 0.1
2017-Sep-16 14:00N 34°30' E 135°13'0 0.1
2017-Sep-16 13:30N 34°30' E 135°13'0 0.0
2017-Sep-16 13:00N 34°30' E 135°13'0 0.1
2017-Sep-16 12:30N 34°30' E 135°13'0 0.1
2017-Sep-16 12:01N 34°30' E 135°13'0 0.1
2017-Sep-16 11:30N 34°30' E 135°13'0 0.2
2017-Sep-16 11:00N 34°30' E 135°13'0 0.1
2017-Sep-16 10:30N 34°30' E 135°13'0 0.0
2017-Sep-16 10:00N 34°30' E 135°13'0 0.1
2017-Sep-16 09:30N 34°30' E 135°13'0 0.0
2017-Sep-16 09:01N 34°30' E 135°13'0 0.2
2017-Sep-16 08:30N 34°30' E 135°13'0 0.1
2017-Sep-16 08:00N 34°30' E 135°13'0 0.0
2017-Sep-16 07:30N 34°30' E 135°13'0 0.2
2017-Sep-16 07:00N 34°30' E 135°13'0 0.1
2017-Sep-16 06:30N 34°30' E 135°13'0 0.2
2017-Sep-16 06:00N 34°30' E 135°13'1 2.1
2017-Sep-16 05:31N 34°31' E 135°14'918.5
2017-Sep-16 05:01N 34°37' E 135°22'2 4.2
2017-Sep-16 04:30N 34°38' E 135°25'0 0.0
2017-Sep-16 03:54N 34°38' E 135°25'0 0.0
2017-Sep-16 03:24N 34°38' E 135°25'0 0.0
2017-Sep-16 03:00N 34°38' E 135°25'0 0.0
2017-Sep-16 02:24N 34°38' E 135°25'0 0.0
2017-Sep-16 01:54N 34°38' E 135°25'0 0.0
2017-Sep-16 01:30N 34°38' E 135°25'0 0.0
2017-Sep-16 00:54N 34°38' E 135°25'0 0.0
2017-Sep-16 00:30N 34°38' E 135°25'0 0.0
2017-Sep-15 23:54N 34°38' E 135°25'0 0.0
2017-Sep-15 23:30N 34°38' E 135°25'0 0.0
2017-Sep-15 23:00N 34°38' E 135°25'0 0.0
2017-Sep-15 22:30N 34°38' E 135°25'611.4
2017-Sep-15 22:00N 34°35' E 135°19'917.7
2017-Sep-15 21:30N 34°33' E 135°08'917.2
2017-Sep-15 21:00N 34°37' E 134°59'1020.3
2017-Sep-15 20:30N 34°32' E 134°48'3 0.1
2017-Sep-14 11:43N 34°34' E 134°50'520.0
2017-Sep-14 11:29N 34°36' E 134°55'817.1
2017-Sep-14 11:00N 34°36' E 135°05'1020.9
2017-Sep-14 10:31N 34°36' E 135°18'611.6
2017-Sep-14 10:00N 34°38' E 135°25'0 0.0
2017-Sep-14 09:24N 34°38' E 135°25'0 0.0
2017-Sep-14 09:00N 34°38' E 135°25'0 0.0
2017-Sep-14 08:30N 34°38' E 135°25'0 0.0
2017-Sep-14 08:00N 34°38' E 135°25'0 0.0
2017-Sep-14 07:30N 34°38' E 135°25'0 0.0
2017-Sep-14 07:00N 34°38' E 135°25'0 0.0
2017-Sep-14 06:30N 34°38' E 135°25'0 0.0
2017-Sep-14 05:48N 34°38' E 135°25'0 0.0
2017-Sep-14 05:24N 34°38' E 135°25'0 0.0
2017-Sep-14 04:54N 34°38' E 135°25'0 0.0
2017-Sep-14 04:30N 34°38' E 135°25'0 0.0
2017-Sep-14 04:00N 34°38' E 135°25'0 0.0
2017-Sep-14 03:18N 34°38' E 135°25'0 0.0
2017-Sep-14 03:00N 34°38' E 135°25'0 0.0
2017-Sep-14 02:30N 34°38' E 135°25'0 0.0
2017-Sep-14 02:00N 34°38' E 135°25'0 0.0
2017-Sep-14 01:30N 34°38' E 135°25'0 0.0
2017-Sep-14 00:54N 34°38' E 135°25'0 0.0
2017-Sep-14 00:30N 34°38' E 135°25'0 0.0
2017-Sep-14 00:00N 34°38' E 135°25'0 0.0
2017-Sep-13 23:24N 34°38' E 135°25'0 0.0
2017-Sep-13 23:00N 34°38' E 135°25'0 0.0
2017-Sep-13 22:30N 34°38' E 135°25'0 0.0
2017-Sep-13 21:54N 34°38' E 135°25'0 0.0
2017-Sep-13 21:30N 34°38' E 135°25'4 8.6
2017-Sep-13 21:01N 34°36' E 135°20'815.5
2017-Sep-13 20:30N 34°35' E 135°11'1019.9
2017-Sep-13 20:00N 34°37' E 134°59'11 0.3
2017-Sep-12 11:53N 34°33' E 134°47'820.2
2017-Sep-12 11:30N 34°36' E 134°56'917.4
2017-Sep-12 11:00N 34°36' E 135°06'1020.0
2017-Sep-12 10:30N 34°36' E 135°18'6 9.8
2017-Sep-12 09:56N 34°38' E 135°25'0 0.0
2017-Sep-12 09:20N 34°38' E 135°25'0 0.0
2017-Sep-12 08:56N 34°38' E 135°25'0 0.0
2017-Sep-12 08:20N 34°38' E 135°25'0 0.0
2017-Sep-12 07:56N 34°38' E 135°25'0 0.0
2017-Sep-12 07:26N 34°38' E 135°25'0 0.0
2017-Sep-12 06:56N 34°38' E 135°25'0 0.0
2017-Sep-12 06:20N 34°38' E 135°25'0 0.0
2017-Sep-12 05:56N 34°38' E 135°25'0 0.0
2017-Sep-12 05:14N 34°38' E 135°25'0 0.0
2017-Sep-12 04:38N 34°38' E 135°25'0 0.0
2017-Sep-12 04:20N 34°38' E 135°25'0 0.0
2017-Sep-12 03:50N 34°38' E 135°25'0 0.0
2017-Sep-12 03:26N 34°38' E 135°25'0 0.0
2017-Sep-12 02:56N 34°38' E 135°25'0 0.0
2017-Sep-12 02:14N 34°38' E 135°25'0 0.0
2017-Sep-12 01:44N 34°38' E 135°25'0 0.0
2017-Sep-12 01:26N 34°38' E 135°25'0 0.0
2017-Sep-12 00:44N 34°38' E 135°25'0 0.0
2017-Sep-12 00:08N 34°38' E 135°25'0 0.0
2017-Sep-11 23:56N 34°38' E 135°25'0 0.0
2017-Sep-11 23:14N 34°38' E 135°25'0 0.0
2017-Sep-11 22:50N 34°38' E 135°25'0 0.0
2017-Sep-11 22:30N 34°38' E 135°25'0 0.0
2017-Sep-11 22:00N 34°38' E 135°25'0 0.0
2017-Sep-11 21:30N 34°38' E 135°25'3 5.5
2017-Sep-11 21:00N 34°37' E 135°22'917.3
2017-Sep-11 20:30N 34°34' E 135°12'917.6
2017-Sep-11 20:00N 34°37' E 135°01'1120.3
2017-Sep-11 19:27N 34°33' E 134°49'  
Track history (hours):
 
Tides and Currents Weather Stations Pressure Air Temp Water Temp Dewpoint Dewpoint Depression Visibility Wind Speed Wind Dir Waves Ship Positions

Sunflower IVory

Last reported at 2017-Sep-20 11:51 UTC. Time now 2017-Sep-21 03:14 UTC.
Position N 34°33' E 134°46'.

Length 153 m; draft 5.7 m.

Type: Ship. MMSI: 431300686.

Date/timePositionNaut miles runAvg speedWind from/ knotsBaromVisibWave heightAir tempDewpointWater temp
2017-Sep-20 11:51N 34°33' E 134°46'822.5
2017-Sep-20 11:30N 34°36' E 134°55'1020.3
2017-Sep-20 11:00N 34°36' E 135°07'1019.8
2017-Sep-20 10:30N 34°37' E 135°19'4 9.1
2017-Sep-20 10:00N 34°38' E 135°25'0 0.0
2017-Sep-20 09:30N 34°38' E 135°25'0 0.0
2017-Sep-20 09:00N 34°38' E 135°25'0 0.0
2017-Sep-20 08:30N 34°38' E 135°25'0 0.0
2017-Sep-20 08:00N 34°38' E 135°25'0 0.0
2017-Sep-20 07:27N 34°38' E 135°25'0 0.0
2017-Sep-20 06:57N 34°38' E 135°25'0 0.0
2017-Sep-20 06:27N 34°38' E 135°25'0 0.0
2017-Sep-20 05:57N 34°38' E 135°25'0 0.0
2017-Sep-20 05:15N 34°38' E 135°25'0 0.0
2017-Sep-20 04:51N 34°38' E 135°25'0 0.0
2017-Sep-20 04:27N 34°38' E 135°25'0 0.0
2017-Sep-20 03:51N 34°38' E 135°25'0 0.0
2017-Sep-20 03:21N 34°38' E 135°25'0 0.0
2017-Sep-20 02:57N 34°38' E 135°25'0 0.0
2017-Sep-20 02:27N 34°38' E 135°25'0 0.0
2017-Sep-20 01:57N 34°38' E 135°25'0 0.0
2017-Sep-20 01:27N 34°38' E 135°25'0 0.0
2017-Sep-20 00:57N 34°38' E 135°25'0 0.0
2017-Sep-20 00:27N 34°38' E 135°25'0 0.0
2017-Sep-19 23:57N 34°38' E 135°25'0 0.0
2017-Sep-19 23:27N 34°38' E 135°25'0 0.0
2017-Sep-19 22:51N 34°38' E 135°25'0 0.0
2017-Sep-19 22:27N 34°38' E 135°25'0 0.0
2017-Sep-19 21:57N 34°38' E 135°25'0 0.0
2017-Sep-19 21:30N 34°38' E 135°25'4 7.2
2017-Sep-19 21:01N 34°37' E 135°21'918.2
2017-Sep-19 20:30N 34°35' E 135°10'917.7
2017-Sep-19 20:00N 34°37' E 134°59'10 0.3
2017-Sep-18 11:42N 34°33' E 134°48'521.8
2017-Sep-18 11:29N 34°35' E 134°53'1020.2
2017-Sep-18 11:00N 34°36' E 135°05'1020.4
2017-Sep-18 10:30N 34°36' E 135°17'611.0
2017-Sep-18 09:56N 34°38' E 135°25'0 0.0
2017-Sep-18 09:20N 34°38' E 135°25'0 0.0
2017-Sep-18 08:56N 34°38' E 135°25'0 0.0
2017-Sep-18 08:20N 34°38' E 135°25'0 0.0
2017-Sep-18 07:56N 34°38' E 135°25'0 0.0
2017-Sep-18 07:26N 34°38' E 135°25'0 0.0
2017-Sep-18 06:38N 34°38' E 135°25'0 0.0
2017-Sep-18 06:26N 34°38' E 135°25'0 0.0
2017-Sep-18 03:14N 34°38' E 135°25'0 0.0
2017-Sep-18 02:56N 34°38' E 135°25'1 3.5
2017-Sep-18 02:31N 34°38' E 135°23'918.5
2017-Sep-18 02:00N 34°31' E 135°15'2 3.2
2017-Sep-18 01:30N 34°30' E 135°14'0 0.1
2017-Sep-18 01:00N 34°30' E 135°14'0 0.0
2017-Sep-18 00:30N 34°30' E 135°14'0 0.0
2017-Sep-18 00:00N 34°30' E 135°14'0 0.0
2017-Sep-17 23:30N 34°30' E 135°14'0 0.0
2017-Sep-17 23:00N 34°30' E 135°14'0 0.0
2017-Sep-17 22:30N 34°30' E 135°14'0 0.0
2017-Sep-17 22:00N 34°30' E 135°14'0 0.1
2017-Sep-17 21:30N 34°30' E 135°14'0 0.0
2017-Sep-17 21:00N 34°30' E 135°14'0 0.1
2017-Sep-17 20:30N 34°30' E 135°14'0 0.0
2017-Sep-17 20:00N 34°30' E 135°14'0 0.0
2017-Sep-17 19:30N 34°30' E 135°14'0 0.0
2017-Sep-17 19:00N 34°30' E 135°14'0 0.0
2017-Sep-17 18:30N 34°30' E 135°14'0 0.0
2017-Sep-17 18:00N 34°30' E 135°14'0 0.0
2017-Sep-17 17:30N 34°30' E 135°14'0 0.1
2017-Sep-17 17:00N 34°30' E 135°14'0 0.0
2017-Sep-17 16:30N 34°30' E 135°14'0 0.0
2017-Sep-17 16:00N 34°30' E 135°14'0 0.0
2017-Sep-17 15:30N 34°30' E 135°14'0 0.1
2017-Sep-17 15:00N 34°30' E 135°14'0 0.2
2017-Sep-17 14:30N 34°30' E 135°14'0 0.2
2017-Sep-17 13:59N 34°30' E 135°14'0 0.2
2017-Sep-17 13:28N 34°30' E 135°13'0 0.0
2017-Sep-17 12:56N 34°30' E 135°13'0 0.0
2017-Sep-17 12:27N 34°30' E 135°13'0 0.1
2017-Sep-17 12:00N 34°30' E 135°13'0 0.1
2017-Sep-17 11:30N 34°30' E 135°13'0 0.0
2017-Sep-17 11:00N 34°30' E 135°13'0 0.0
2017-Sep-17 10:30N 34°30' E 135°13'0 0.1
2017-Sep-17 10:00N 34°30' E 135°13'0 0.1
2017-Sep-17 09:30N 34°30' E 135°13'0 0.0
2017-Sep-17 09:00N 34°30' E 135°13'0 0.1
2017-Sep-17 08:30N 34°30' E 135°13'0 0.0
2017-Sep-17 08:00N 34°30' E 135°13'0 0.1
2017-Sep-17 07:30N 34°30' E 135°13'0 0.1
2017-Sep-17 07:00N 34°30' E 135°13'0 0.0
2017-Sep-17 06:30N 34°30' E 135°13'0 0.1
2017-Sep-17 06:00N 34°30' E 135°13'0 0.1
2017-Sep-17 05:30N 34°30' E 135°13'0 0.0
2017-Sep-17 05:00N 34°30' E 135°13'0 0.0
2017-Sep-17 04:30N 34°30' E 135°13'0 0.0
2017-Sep-17 04:00N 34°30' E 135°13'0 0.1
2017-Sep-17 03:30N 34°30' E 135°13'0 0.1
2017-Sep-17 03:00N 34°30' E 135°13'0 0.1
2017-Sep-17 02:30N 34°30' E 135°13'0 0.0
2017-Sep-17 02:00N 34°30' E 135°13'0 0.0
2017-Sep-17 01:30N 34°30' E 135°13'0 0.0
2017-Sep-17 01:00N 34°30' E 135°13'0 0.1
2017-Sep-17 00:30N 34°30' E 135°13'0 0.1
2017-Sep-17 00:01N 34°30' E 135°13'0 0.1
2017-Sep-16 23:30N 34°30' E 135°13'0 0.0
2017-Sep-16 22:57N 34°30' E 135°13'0 0.0
2017-Sep-16 22:30N 34°30' E 135°13'0 0.1
2017-Sep-16 22:00N 34°30' E 135°13'0 0.1
2017-Sep-16 21:30N 34°30' E 135°13'0 0.0
2017-Sep-16 21:00N 34°30' E 135°13'0 0.1
2017-Sep-16 20:30N 34°30' E 135°13'0 0.0
2017-Sep-16 19:57N 34°30' E 135°13'0 0.2
2017-Sep-16 19:30N 34°30' E 135°13'0 0.1
2017-Sep-16 19:00N 34°30' E 135°13'0 0.1
2017-Sep-16 18:30N 34°30' E 135°13'0 0.0
2017-Sep-16 18:00N 34°30' E 135°13'0 0.1
2017-Sep-16 17:30N 34°30' E 135°13'0 0.1
2017-Sep-16 17:00N 34°30' E 135°13'0 0.1
2017-Sep-16 16:30N 34°30' E 135°13'0 0.0
2017-Sep-16 16:00N 34°30' E 135°13'0 0.1
2017-Sep-16 15:30N 34°30' E 135°13'0 0.0
2017-Sep-16 15:00N 34°30' E 135°13'0 0.0
2017-Sep-16 14:27N 34°30' E 135°13'0 0.1
2017-Sep-16 14:00N 34°30' E 135°13'0 0.1
2017-Sep-16 13:30N 34°30' E 135°13'0 0.0
2017-Sep-16 13:00N 34°30' E 135°13'0 0.1
2017-Sep-16 12:30N 34°30' E 135°13'0 0.1
2017-Sep-16 12:01N 34°30' E 135°13'0 0.1
2017-Sep-16 11:30N 34°30' E 135°13'0 0.2
2017-Sep-16 11:00N 34°30' E 135°13'0 0.1
2017-Sep-16 10:30N 34°30' E 135°13'0 0.0
2017-Sep-16 10:00N 34°30' E 135°13'0 0.1
2017-Sep-16 09:30N 34°30' E 135°13'0 0.0
2017-Sep-16 09:01N 34°30' E 135°13'0 0.2
2017-Sep-16 08:30N 34°30' E 135°13'0 0.1
2017-Sep-16 08:00N 34°30' E 135°13'0 0.0
2017-Sep-16 07:30N 34°30' E 135°13'0 0.2
2017-Sep-16 07:00N 34°30' E 135°13'0 0.1
2017-Sep-16 06:30N 34°30' E 135°13'0 0.2
2017-Sep-16 06:00N 34°30' E 135°13'1 2.1
2017-Sep-16 05:31N 34°31' E 135°14'918.5
2017-Sep-16 05:01N 34°37' E 135°22'2 4.2
2017-Sep-16 04:30N 34°38' E 135°25'0 0.0
2017-Sep-16 03:54N 34°38' E 135°25'0 0.0
2017-Sep-16 03:24N 34°38' E 135°25'0 0.0
2017-Sep-16 03:00N 34°38' E 135°25'0 0.0
2017-Sep-16 02:24N 34°38' E 135°25'0 0.0
2017-Sep-16 01:54N 34°38' E 135°25'0 0.0
2017-Sep-16 01:30N 34°38' E 135°25'0 0.0
2017-Sep-16 00:54N 34°38' E 135°25'0 0.0
2017-Sep-16 00:30N 34°38' E 135°25'0 0.0
2017-Sep-15 23:54N 34°38' E 135°25'0 0.0
2017-Sep-15 23:30N 34°38' E 135°25'0 0.0
2017-Sep-15 23:00N 34°38' E 135°25'0 0.0
2017-Sep-15 22:30N 34°38' E 135°25'611.4
2017-Sep-15 22:00N 34°35' E 135°19'917.7
2017-Sep-15 21:30N 34°33' E 135°08'917.2
2017-Sep-15 21:00N 34°37' E 134°59'1020.3
2017-Sep-15 20:30N 34°32' E 134°48'3 0.1
2017-Sep-14 11:43N 34°34' E 134°50'520.0
2017-Sep-14 11:29N 34°36' E 134°55'817.1
2017-Sep-14 11:00N 34°36' E 135°05'1020.9
2017-Sep-14 10:31N 34°36' E 135°18'611.6
2017-Sep-14 10:00N 34°38' E 135°25'0 0.0
2017-Sep-14 09:24N 34°38' E 135°25'0 0.0
2017-Sep-14 09:00N 34°38' E 135°25'0 0.0
2017-Sep-14 08:30N 34°38' E 135°25'0 0.0
2017-Sep-14 08:00N 34°38' E 135°25'0 0.0
2017-Sep-14 07:30N 34°38' E 135°25'0 0.0
2017-Sep-14 07:00N 34°38' E 135°25'0 0.0
2017-Sep-14 06:30N 34°38' E 135°25'0 0.0
2017-Sep-14 05:48N 34°38' E 135°25'0 0.0
2017-Sep-14 05:24N 34°38' E 135°25'0 0.0
2017-Sep-14 04:54N 34°38' E 135°25'0 0.0
2017-Sep-14 04:30N 34°38' E 135°25'0 0.0
2017-Sep-14 04:00N 34°38' E 135°25'0 0.0
2017-Sep-14 03:18N 34°38' E 135°25'0 0.0
2017-Sep-14 03:00N 34°38' E 135°25'0 0.0
2017-Sep-14 02:30N 34°38' E 135°25'0 0.0
2017-Sep-14 02:00N 34°38' E 135°25'0 0.0
2017-Sep-14 01:30N 34°38' E 135°25'0 0.0
2017-Sep-14 00:54N 34°38' E 135°25'0 0.0
2017-Sep-14 00:30N 34°38' E 135°25'0 0.0
2017-Sep-14 00:00N 34°38' E 135°25'0 0.0
2017-Sep-13 23:24N 34°38' E 135°25'0 0.0
2017-Sep-13 23:00N 34°38' E 135°25'0 0.0
2017-Sep-13 22:30N 34°38' E 135°25'0 0.0
2017-Sep-13 21:54N 34°38' E 135°25'0 0.0
2017-Sep-13 21:30N 34°38' E 135°25'4 8.6
2017-Sep-13 21:01N 34°36' E 135°20'815.5
2017-Sep-13 20:30N 34°35' E 135°11'1019.9
2017-Sep-13 20:00N 34°37' E 134°59'11 0.3
2017-Sep-12 11:53N 34°33' E 134°47'820.2
2017-Sep-12 11:30N 34°36' E 134°56'917.4
2017-Sep-12 11:00N 34°36' E 135°06'1020.0
2017-Sep-12 10:30N 34°36' E 135°18'6 9.8
2017-Sep-12 09:56N 34°38' E 135°25'0 0.0
2017-Sep-12 09:20N 34°38' E 135°25'0 0.0
2017-Sep-12 08:56N 34°38' E 135°25'0 0.0
2017-Sep-12 08:20N 34°38' E 135°25'0 0.0
2017-Sep-12 07:56N 34°38' E 135°25'0 0.0
2017-Sep-12 07:26N 34°38' E 135°25'0 0.0
2017-Sep-12 06:56N 34°38' E 135°25'0 0.0
2017-Sep-12 06:20N 34°38' E 135°25'0 0.0
2017-Sep-12 05:56N 34°38' E 135°25'0 0.0
2017-Sep-12 05:14N 34°38' E 135°25'0 0.0
2017-Sep-12 04:38N 34°38' E 135°25'0 0.0
2017-Sep-12 04:20N 34°38' E 135°25'0 0.0
2017-Sep-12 03:50N 34°38' E 135°25'0 0.0
2017-Sep-12 03:26N 34°38' E 135°25'0 0.0
2017-Sep-12 02:56N 34°38' E 135°25'0 0.0
2017-Sep-12 02:14N 34°38' E 135°25'0 0.0
2017-Sep-12 01:44N 34°38' E 135°25'0 0.0
2017-Sep-12 01:26N 34°38' E 135°25'0 0.0
2017-Sep-12 00:44N 34°38' E 135°25'0 0.0
2017-Sep-12 00:08N 34°38' E 135°25'0 0.0
2017-Sep-11 23:56N 34°38' E 135°25'0 0.0
2017-Sep-11 23:14N 34°38' E 135°25'0 0.0
2017-Sep-11 22:50N 34°38' E 135°25'0 0.0
2017-Sep-11 22:30N 34°38' E 135°25'0 0.0
2017-Sep-11 22:00N 34°38' E 135°25'0 0.0
2017-Sep-11 21:30N 34°38' E 135°25'3 5.5
2017-Sep-11 21:00N 34°37' E 135°22'917.3
2017-Sep-11 20:30N 34°34' E 135°12'917.6
2017-Sep-11 20:00N 34°37' E 135°01'1120.3
2017-Sep-11 19:27N 34°33' E 134°49'  

Dump ship's entire track history